North Beach, Maryland
Current Conditions -  °F | °C
As of 1:54 PM on Thursday 30 Oct 2014 (Local Time) from KNAK Reporting Station
Broken Clouds Broken Clouds  
Wind Chill: 15°   Ceiling: 5000
Heat Index: 15°   Visibility: 10mi
Dew Point:   Wind: 13mph
Humidity: 48%   Direction: 350°N
Pressure: 30.02"   Gusts: NA
Location:  38.71°N, 76.53°W
Report Text: KNAK 301754Z AUTO 35011KT 10SM BKN050 15/04 A3002 RMK AO2 SLP168 T01500039 10150 20094 58013
Loading
Personal Weather Stations






























Interactive Weather Map
Tropical Storm Tracking
New forecast layout! Learn more

10-Day Weather Forecast

Advertisements
Track Severe Weather on mobile